sensor_id;sensor_type;location;lat;lon;timestamp;P1;durP1;ratioP1;P2;durP2;ratioP2
6013;SDS011;3035;49.928;8.410;2023-11-21T00:00:53;4.33;;;2.23;;
6013;SDS011;3035;49.928;8.410;2023-11-21T00:03:22;8.17;;;1.90;;
6013;SDS011;3035;49.928;8.410;2023-11-21T00:05:50;5.70;;;2.90;;
6013;SDS011;3035;49.928;8.410;2023-11-21T00:08:18;5.33;;;1.57;;
6013;SDS011;3035;49.928;8.410;2023-11-21T00:10:46;6.93;;;1.90;;
6013;SDS011;3035;49.928;8.410;2023-11-21T00:13:14;7.03;;;1.97;;
6013;SDS011;3035;49.928;8.410;2023-11-21T00:15:42;3.13;;;1.60;;
6013;SDS011;3035;49.928;8.410;2023-11-21T00:18:10;8.90;;;2.63;;
6013;SDS011;3035;49.928;8.410;2023-11-21T00:20:38;5.20;;;1.80;;
6013;SDS011;3035;49.928;8.410;2023-11-21T00:23:06;5.83;;;1.70;;
6013;SDS011;3035;49.928;8.410;2023-11-21T00:25:35;6.27;;;1.97;;
6013;SDS011;3035;49.928;8.410;2023-11-21T00:28:02;3.93;;;1.60;;
6013;SDS011;3035;49.928;8.410;2023-11-21T00:30:30;4.37;;;1.73;;
6013;SDS011;3035;49.928;8.410;2023-11-21T00:32:58;7.00;;;1.73;;
6013;SDS011;3035;49.928;8.410;2023-11-21T00:35:26;4.13;;;1.53;;
6013;SDS011;3035;49.928;8.410;2023-11-21T00:37:54;6.17;;;1.60;;
6013;SDS011;3035;49.928;8.410;2023-11-21T00:40:22;7.17;;;1.87;;
6013;SDS011;3035;49.928;8.410;2023-11-21T00:42:50;4.60;;;1.47;;
6013;SDS011;3035;49.928;8.410;2023-11-21T00:45:18;3.60;;;1.77;;
6013;SDS011;3035;49.928;8.410;2023-11-21T00:47:47;5.37;;;1.43;;
6013;SDS011;3035;49.928;8.410;2023-11-21T00:50:14;3.03;;;1.40;;
6013;SDS011;3035;49.928;8.410;2023-11-21T00:52:42;5.53;;;1.40;;
6013;SDS011;3035;49.928;8.410;2023-11-21T00:55:11;13.23;;;2.33;;
6013;SDS011;3035;49.928;8.410;2023-11-21T00:57:39;9.63;;;2.20;;
6013;SDS011;3035;49.928;8.410;2023-11-21T01:00:08;3.23;;;1.70;;
6013;SDS011;3035;49.928;8.410;2023-11-21T01:02:37;3.90;;;1.80;;
6013;SDS011;3035;49.928;8.410;2023-11-21T01:05:04;3.63;;;1.43;;
6013;SDS011;3035;49.928;8.410;2023-11-21T01:07:32;6.00;;;2.30;;
6013;SDS011;3035;49.928;8.410;2023-11-21T01:10:00;6.10;;;2.03;;
6013;SDS011;3035;49.928;8.410;2023-11-21T01:12:28;6.13;;;2.40;;
6013;SDS011;3035;49.928;8.410;2023-11-21T01:14:57;6.60;;;2.30;;
6013;SDS011;3035;49.928;8.410;2023-11-21T01:17:25;10.60;;;2.80;;
6013;SDS011;3035;49.928;8.410;2023-11-21T01:19:53;13.63;;;3.00;;
6013;SDS011;3035;49.928;8.410;2023-11-21T01:22:21;7.23;;;3.20;;
6013;SDS011;3035;49.928;8.410;2023-11-21T01:24:49;7.10;;;3.00;;
6013;SDS011;3035;49.928;8.410;2023-11-21T01:27:17;6.20;;;3.27;;
6013;SDS011;3035;49.928;8.410;2023-11-21T01:29:45;7.33;;;3.17;;
6013;SDS011;3035;49.928;8.410;2023-11-21T01:32:13;5.37;;;3.20;;
6013;SDS011;3035;49.928;8.410;2023-11-21T01:34:42;4.80;;;3.23;;
6013;SDS011;3035;49.928;8.410;2023-11-21T01:37:10;4.83;;;3.43;;
6013;SDS011;3035;49.928;8.410;2023-11-21T01:39:38;10.77;;;3.60;;
6013;SDS011;3035;49.928;8.410;2023-11-21T01:42:06;7.67;;;3.50;;
6013;SDS011;3035;49.928;8.410;2023-11-21T01:44:33;6.77;;;3.90;;
6013;SDS011;3035;49.928;8.410;2023-11-21T01:47:01;7.00;;;3.63;;
6013;SDS011;3035;49.928;8.410;2023-11-21T01:49:28;5.70;;;3.80;;
6013;SDS011;3035;49.928;8.410;2023-11-21T01:51:56;10.93;;;3.40;;
6013;SDS011;3035;49.928;8.410;2023-11-21T01:54:23;10.50;;;4.00;;
6013;SDS011;3035;49.928;8.410;2023-11-21T01:56:51;11.17;;;3.07;;
6013;SDS011;3035;49.928;8.410;2023-11-21T01:59:19;5.00;;;3.70;;
6013;SDS011;3035;49.928;8.410;2023-11-21T02:01:46;2.97;;;2.50;;
6013;SDS011;3035;49.928;8.410;2023-11-21T02:04:13;5.73;;;3.13;;
6013;SDS011;3035;49.928;8.410;2023-11-21T02:06:40;3.10;;;2.77;;
6013;SDS011;3035;49.928;8.410;2023-11-21T02:09:08;4.67;;;3.30;;
6013;SDS011;3035;49.928;8.410;2023-11-21T02:11:35;7.87;;;3.20;;
6013;SDS011;3035;49.928;8.410;2023-11-21T02:14:03;8.73;;;3.00;;
6013;SDS011;3035;49.928;8.410;2023-11-21T02:16:30;15.83;;;2.67;;
6013;SDS011;3035;49.928;8.410;2023-11-21T02:18:58;4.53;;;2.60;;
6013;SDS011;3035;49.928;8.410;2023-11-21T02:21:25;5.83;;;2.50;;
6013;SDS011;3035;49.928;8.410;2023-11-21T02:23:52;4.20;;;2.30;;
6013;SDS011;3035;49.928;8.410;2023-11-21T02:26:20;9.30;;;2.73;;
6013;SDS011;3035;49.928;8.410;2023-11-21T02:28:47;4.00;;;2.37;;
6013;SDS011;3035;49.928;8.410;2023-11-21T02:31:15;8.07;;;3.47;;
6013;SDS011;3035;49.928;8.410;2023-11-21T02:33:42;6.77;;;2.17;;
6013;SDS011;3035;49.928;8.410;2023-11-21T02:36:10;10.47;;;2.67;;
6013;SDS011;3035;49.928;8.410;2023-11-21T02:38:37;8.33;;;2.80;;
6013;SDS011;3035;49.928;8.410;2023-11-21T02:41:04;4.77;;;2.47;;
6013;SDS011;3035;49.928;8.410;2023-11-21T02:43:32;5.03;;;2.80;;
6013;SDS011;3035;49.928;8.410;2023-11-21T02:45:59;11.10;;;3.17;;
6013;SDS011;3035;49.928;8.410;2023-11-21T02:48:27;4.03;;;2.70;;
6013;SDS011;3035;49.928;8.410;2023-11-21T02:50:54;5.00;;;3.27;;
6013;SDS011;3035;49.928;8.410;2023-11-21T02:53:22;5.60;;;2.57;;
6013;SDS011;3035;49.928;8.410;2023-11-21T02:55:49;3.23;;;2.93;;
6013;SDS011;3035;49.928;8.410;2023-11-21T02:58:17;4.30;;;2.63;;
6013;SDS011;3035;49.928;8.410;2023-11-21T03:00:44;4.17;;;3.40;;
6013;SDS011;3035;49.928;8.410;2023-11-21T03:03:12;9.17;;;2.73;;
6013;SDS011;3035;49.928;8.410;2023-11-21T03:05:39;6.20;;;3.23;;
6013;SDS011;3035;49.928;8.410;2023-11-21T03:08:07;5.73;;;2.47;;
6013;SDS011;3035;49.928;8.410;2023-11-21T03:10:34;3.20;;;2.30;;
6013;SDS011;3035;49.928;8.410;2023-11-21T03:13:02;3.13;;;2.50;;
6013;SDS011;3035;49.928;8.410;2023-11-21T03:15:29;2.90;;;2.60;;
6013;SDS011;3035;49.928;8.410;2023-11-21T03:17:58;6.00;;;2.63;;
6013;SDS011;3035;49.928;8.410;2023-11-21T03:20:26;5.27;;;3.33;;
6013;SDS011;3035;49.928;8.410;2023-11-21T03:22:54;5.00;;;2.77;;
6013;SDS011;3035;49.928;8.410;2023-11-21T03:25:22;4.93;;;2.73;;
6013;SDS011;3035;49.928;8.410;2023-11-21T03:27:50;6.57;;;2.90;;
6013;SDS011;3035;49.928;8.410;2023-11-21T03:30:19;9.67;;;3.00;;
6013;SDS011;3035;49.928;8.410;2023-11-21T03:32:46;8.13;;;4.07;;
6013;SDS011;3035;49.928;8.410;2023-11-21T03:35:14;4.63;;;3.17;;
6013;SDS011;3035;49.928;8.410;2023-11-21T03:37:42;7.20;;;2.93;;
6013;SDS011;3035;49.928;8.410;2023-11-21T03:40:11;5.17;;;3.00;;
6013;SDS011;3035;49.928;8.410;2023-11-21T03:42:38;5.93;;;2.83;;
6013;SDS011;3035;49.928;8.410;2023-11-21T03:45:07;6.50;;;3.23;;
6013;SDS011;3035;49.928;8.410;2023-11-21T03:47:35;10.20;;;3.03;;
6013;SDS011;3035;49.928;8.410;2023-11-21T03:50:04;4.63;;;3.30;;
6013;SDS011;3035;49.928;8.410;2023-11-21T03:52:33;4.43;;;3.10;;
6013;SDS011;3035;49.928;8.410;2023-11-21T03:55:01;7.37;;;3.43;;
6013;SDS011;3035;49.928;8.410;2023-11-21T03:57:29;8.07;;;3.90;;
6013;SDS011;3035;49.928;8.410;2023-11-21T03:59:57;8.70;;;3.40;;
6013;SDS011;3035;49.928;8.410;2023-11-21T04:02:26;9.53;;;4.30;;
6013;SDS011;3035;49.928;8.410;2023-11-21T04:04:54;6.83;;;3.90;;
6013;SDS011;3035;49.928;8.410;2023-11-21T04:07:22;7.57;;;3.60;;
6013;SDS011;3035;49.928;8.410;2023-11-21T04:09:50;3.90;;;3.23;;
6013;SDS011;3035;49.928;8.410;2023-11-21T04:12:19;5.10;;;3.40;;
6013;SDS011;3035;49.928;8.410;2023-11-21T04:14:46;4.73;;;3.60;;
6013;SDS011;3035;49.928;8.410;2023-11-21T04:17:17;7.50;;;4.27;;
6013;SDS011;3035;49.928;8.410;2023-11-21T04:19:42;7.93;;;3.87;;
6013;SDS011;3035;49.928;8.410;2023-11-21T04:22:11;10.73;;;4.37;;
6013;SDS011;3035;49.928;8.410;2023-11-21T04:24:39;8.83;;;4.47;;
6013;SDS011;3035;49.928;8.410;2023-11-21T04:27:07;6.70;;;5.17;;
6013;SDS011;3035;49.928;8.410;2023-11-21T04:29:35;7.37;;;5.43;;
6013;SDS011;3035;49.928;8.410;2023-11-21T04:32:03;10.40;;;6.70;;
6013;SDS011;3035;49.928;8.410;2023-11-21T04:34:31;8.60;;;7.10;;
6013;SDS011;3035;49.928;8.410;2023-11-21T04:36:58;13.47;;;7.90;;
6013;SDS011;3035;49.928;8.410;2023-11-21T04:39:26;8.13;;;6.73;;
6013;SDS011;3035;49.928;8.410;2023-11-21T04:41:53;8.70;;;6.60;;
6013;SDS011;3035;49.928;8.410;2023-11-21T04:44:20;11.83;;;6.60;;
6013;SDS011;3035;49.928;8.410;2023-11-21T04:46:48;9.80;;;6.93;;
6013;SDS011;3035;49.928;8.410;2023-11-21T04:49:15;7.93;;;6.53;;
6013;SDS011;3035;49.928;8.410;2023-11-21T04:51:43;6.90;;;5.27;;
6013;SDS011;3035;49.928;8.410;2023-11-21T04:54:10;9.70;;;6.80;;
6013;SDS011;3035;49.928;8.410;2023-11-21T04:56:38;8.90;;;5.87;;
6013;SDS011;3035;49.928;8.410;2023-11-21T04:59:05;9.77;;;6.50;;
6013;SDS011;3035;49.928;8.410;2023-11-21T05:01:32;8.90;;;5.57;;
6013;SDS011;3035;49.928;8.410;2023-11-21T05:04:00;9.23;;;5.77;;
6013;SDS011;3035;49.928;8.410;2023-11-21T05:06:27;9.27;;;6.07;;
6013;SDS011;3035;49.928;8.410;2023-11-21T05:08:55;10.60;;;7.00;;
6013;SDS011;3035;49.928;8.410;2023-11-21T05:11:23;10.73;;;7.13;;
6013;SDS011;3035;49.928;8.410;2023-11-21T05:13:52;10.03;;;7.13;;
6013;SDS011;3035;49.928;8.410;2023-11-21T05:16:20;11.33;;;6.97;;
6013;SDS011;3035;49.928;8.410;2023-11-21T05:18:47;13.77;;;7.47;;
6013;SDS011;3035;49.928;8.410;2023-11-21T05:21:15;9.20;;;7.27;;
6013;SDS011;3035;49.928;8.410;2023-11-21T05:23:42;11.43;;;7.80;;
6013;SDS011;3035;49.928;8.410;2023-11-21T05:26:09;9.03;;;6.70;;
6013;SDS011;3035;49.928;8.410;2023-11-21T05:28:37;10.30;;;7.47;;
6013;SDS011;3035;49.928;8.410;2023-11-21T05:31:04;14.30;;;8.23;;
6013;SDS011;3035;49.928;8.410;2023-11-21T05:33:32;12.57;;;7.60;;
6013;SDS011;3035;49.928;8.410;2023-11-21T05:35:59;12.57;;;8.43;;
6013;SDS011;3035;49.928;8.410;2023-11-21T05:38:27;14.13;;;8.20;;
6013;SDS011;3035;49.928;8.410;2023-11-21T05:40:54;13.30;;;8.20;;
6013;SDS011;3035;49.928;8.410;2023-11-21T05:43:22;12.70;;;8.60;;
6013;SDS011;3035;49.928;8.410;2023-11-21T05:45:49;15.83;;;9.03;;
6013;SDS011;3035;49.928;8.410;2023-11-21T05:48:16;12.67;;;7.97;;
6013;SDS011;3035;49.928;8.410;2023-11-21T05:50:44;13.33;;;8.73;;
6013;SDS011;3035;49.928;8.410;2023-11-21T05:53:11;15.00;;;8.50;;
6013;SDS011;3035;49.928;8.410;2023-11-21T05:55:39;14.00;;;8.47;;
6013;SDS011;3035;49.928;8.410;2023-11-21T05:58:06;11.10;;;7.60;;
6013;SDS011;3035;49.928;8.410;2023-11-21T06:00:34;15.03;;;7.57;;
6013;SDS011;3035;49.928;8.410;2023-11-21T06:03:01;10.53;;;7.30;;
6013;SDS011;3035;49.928;8.410;2023-11-21T06:05:29;12.53;;;8.13;;
6013;SDS011;3035;49.928;8.410;2023-11-21T06:07:56;14.73;;;8.33;;
6013;SDS011;3035;49.928;8.410;2023-11-21T06:10:26;13.40;;;9.10;;
6013;SDS011;3035;49.928;8.410;2023-11-21T06:12:53;14.10;;;9.50;;
6013;SDS011;3035;49.928;8.410;2023-11-21T06:15:20;14.07;;;8.20;;
6013;SDS011;3035;49.928;8.410;2023-11-21T06:17:48;15.03;;;8.83;;
6013;SDS011;3035;49.928;8.410;2023-11-21T06:20:16;16.33;;;9.90;;
6013;SDS011;3035;49.928;8.410;2023-11-21T06:22:44;22.50;;;9.37;;
6013;SDS011;3035;49.928;8.410;2023-11-21T06:25:11;14.63;;;8.10;;
6013;SDS011;3035;49.928;8.410;2023-11-21T06:27:40;15.47;;;8.97;;
6013;SDS011;3035;49.928;8.410;2023-11-21T06:30:06;15.40;;;8.10;;
6013;SDS011;3035;49.928;8.410;2023-11-21T06:32:34;15.73;;;9.53;;
6013;SDS011;3035;49.928;8.410;2023-11-21T06:35:01;14.80;;;8.87;;
6013;SDS011;3035;49.928;8.410;2023-11-21T06:37:28;14.60;;;9.53;;
6013;SDS011;3035;49.928;8.410;2023-11-21T06:39:56;18.80;;;8.50;;
6013;SDS011;3035;49.928;8.410;2023-11-21T06:42:24;12.37;;;8.43;;
6013;SDS011;3035;49.928;8.410;2023-11-21T06:44:51;13.70;;;9.37;;
6013;SDS011;3035;49.928;8.410;2023-11-21T06:47:18;13.10;;;8.20;;
6013;SDS011;3035;49.928;8.410;2023-11-21T06:49:48;13.13;;;8.60;;
6013;SDS011;3035;49.928;8.410;2023-11-21T06:52:16;14.10;;;9.10;;
6013;SDS011;3035;49.928;8.410;2023-11-21T06:54:43;11.43;;;7.53;;
6013;SDS011;3035;49.928;8.410;2023-11-21T06:57:11;15.53;;;7.53;;
6013;SDS011;3035;49.928;8.410;2023-11-21T06:59:38;14.47;;;8.80;;
6013;SDS011;3035;49.928;8.410;2023-11-21T07:02:05;9.43;;;7.70;;
6013;SDS011;3035;49.928;8.410;2023-11-21T07:04:34;9.40;;;7.20;;
6013;SDS011;3035;49.928;8.410;2023-11-21T07:07:02;10.67;;;6.83;;
6013;SDS011;3035;49.928;8.410;2023-11-21T07:09:29;11.00;;;7.10;;
6013;SDS011;3035;49.928;8.410;2023-11-21T07:11:57;13.23;;;7.40;;
6013;SDS011;3035;49.928;8.410;2023-11-21T07:14:24;16.03;;;6.80;;
6013;SDS011;3035;49.928;8.410;2023-11-21T07:16:51;10.50;;;6.97;;
6013;SDS011;3035;49.928;8.410;2023-11-21T07:19:20;11.10;;;7.10;;
6013;SDS011;3035;49.928;8.410;2023-11-21T07:21:46;13.73;;;7.63;;
6013;SDS011;3035;49.928;8.410;2023-11-21T07:24:14;13.90;;;7.63;;
6013;SDS011;3035;49.928;8.410;2023-11-21T07:26:41;11.30;;;7.40;;
6013;SDS011;3035;49.928;8.410;2023-11-21T07:29:09;13.50;;;7.53;;
6013;SDS011;3035;49.928;8.410;2023-11-21T07:31:36;11.50;;;6.20;;
6013;SDS011;3035;49.928;8.410;2023-11-21T07:34:04;13.30;;;7.47;;
6013;SDS011;3035;49.928;8.410;2023-11-21T07:36:31;13.20;;;6.63;;
6013;SDS011;3035;49.928;8.410;2023-11-21T07:38:58;12.93;;;7.23;;
6013;SDS011;3035;49.928;8.410;2023-11-21T07:41:26;12.23;;;6.13;;
6013;SDS011;3035;49.928;8.410;2023-11-21T07:43:53;11.00;;;6.00;;
6013;SDS011;3035;49.928;8.410;2023-11-21T07:46:21;11.20;;;6.20;;
6013;SDS011;3035;49.928;8.410;2023-11-21T07:48:48;9.07;;;6.67;;
6013;SDS011;3035;49.928;8.410;2023-11-21T07:51:16;10.27;;;6.43;;
6013;SDS011;3035;49.928;8.410;2023-11-21T07:53:43;9.43;;;6.80;;
6013;SDS011;3035;49.928;8.410;2023-11-21T07:56:11;14.67;;;7.80;;
6013;SDS011;3035;49.928;8.410;2023-11-21T07:58:38;12.47;;;7.40;;
6013;SDS011;3035;49.928;8.410;2023-11-21T08:01:05;11.37;;;7.60;;
6013;SDS011;3035;49.928;8.410;2023-11-21T08:03:33;9.60;;;6.70;;
6013;SDS011;3035;49.928;8.410;2023-11-21T08:06:00;8.13;;;6.07;;
6013;SDS011;3035;49.928;8.410;2023-11-21T08:08:28;10.60;;;5.73;;
6013;SDS011;3035;49.928;8.410;2023-11-21T08:10:55;9.30;;;6.10;;
6013;SDS011;3035;49.928;8.410;2023-11-21T08:13:24;10.73;;;6.50;;
6013;SDS011;3035;49.928;8.410;2023-11-21T08:15:54;8.80;;;5.60;;
6013;SDS011;3035;49.928;8.410;2023-11-21T08:18:21;6.30;;;4.93;;
6013;SDS011;3035;49.928;8.410;2023-11-21T08:20:48;10.00;;;5.30;;
6013;SDS011;3035;49.928;8.410;2023-11-21T08:23:16;9.03;;;5.00;;
6013;SDS011;3035;49.928;8.410;2023-11-21T08:25:44;13.70;;;4.90;;
6013;SDS011;3035;49.928;8.410;2023-11-21T08:28:11;6.93;;;4.80;;
6013;SDS011;3035;49.928;8.410;2023-11-21T08:30:39;4.87;;;4.07;;
6013;SDS011;3035;49.928;8.410;2023-11-21T08:33:06;6.43;;;4.03;;
6013;SDS011;3035;49.928;8.410;2023-11-21T08:35:33;5.60;;;4.40;;
6013;SDS011;3035;49.928;8.410;2023-11-21T08:38:00;4.27;;;3.20;;
6013;SDS011;3035;49.928;8.410;2023-11-21T08:40:28;6.83;;;4.27;;
6013;SDS011;3035;49.928;8.410;2023-11-21T08:42:55;7.00;;;4.40;;
6013;SDS011;3035;49.928;8.410;2023-11-21T08:45:23;7.27;;;3.73;;
6013;SDS011;3035;49.928;8.410;2023-11-21T08:47:50;4.57;;;3.63;;
6013;SDS011;3035;49.928;8.410;2023-11-21T08:50:18;3.80;;;3.30;;
6013;SDS011;3035;49.928;8.410;2023-11-21T08:52:45;7.70;;;4.10;;
6013;SDS011;3035;49.928;8.410;2023-11-21T08:55:13;6.07;;;3.07;;
6013;SDS011;3035;49.928;8.410;2023-11-21T08:57:40;5.90;;;4.30;;
6013;SDS011;3035;49.928;8.410;2023-11-21T09:00:07;5.70;;;4.07;;
6013;SDS011;3035;49.928;8.410;2023-11-21T09:02:36;5.13;;;3.50;;
6013;SDS011;3035;49.928;8.410;2023-11-21T09:05:04;5.80;;;3.17;;
6013;SDS011;3035;49.928;8.410;2023-11-21T09:07:31;7.10;;;3.70;;
6013;SDS011;3035;49.928;8.410;2023-11-21T09:09:58;4.60;;;3.57;;
6013;SDS011;3035;49.928;8.410;2023-11-21T09:12:26;5.93;;;3.60;;
6013;SDS011;3035;49.928;8.410;2023-11-21T09:14:53;9.23;;;3.47;;
6013;SDS011;3035;49.928;8.410;2023-11-21T09:17:21;9.50;;;3.67;;
6013;SDS011;3035;49.928;8.410;2023-11-21T09:19:49;4.00;;;3.43;;
6013;SDS011;3035;49.928;8.410;2023-11-21T09:22:18;7.37;;;3.00;;
6013;SDS011;3035;49.928;8.410;2023-11-21T09:24:46;3.90;;;3.30;;
6013;SDS011;3035;49.928;8.410;2023-11-21T09:27:14;3.33;;;3.03;;
6013;SDS011;3035;49.928;8.410;2023-11-21T09:29:43;4.23;;;3.00;;
6013;SDS011;3035;49.928;8.410;2023-11-21T09:32:10;7.40;;;3.13;;
6013;SDS011;3035;49.928;8.410;2023-11-21T09:34:38;4.80;;;3.00;;
6013;SDS011;3035;49.928;8.410;2023-11-21T09:37:06;6.20;;;3.20;;
6013;SDS011;3035;49.928;8.410;2023-11-21T09:39:35;4.60;;;2.70;;
6013;SDS011;3035;49.928;8.410;2023-11-21T09:42:10;3.77;;;2.43;;
6013;SDS011;3035;49.928;8.410;2023-11-21T09:44:43;3.03;;;2.57;;
6013;SDS011;3035;49.928;8.410;2023-11-21T09:47:14;6.77;;;2.70;;
6013;SDS011;3035;49.928;8.410;2023-11-21T09:49:42;4.30;;;2.90;;
6013;SDS011;3035;49.928;8.410;2023-11-21T09:52:09;6.00;;;2.50;;
6013;SDS011;3035;49.928;8.410;2023-11-21T09:54:37;8.00;;;3.30;;
6013;SDS011;3035;49.928;8.410;2023-11-21T09:57:06;3.60;;;2.80;;
6013;SDS011;3035;49.928;8.410;2023-11-21T09:59:33;6.30;;;3.00;;
6013;SDS011;3035;49.928;8.410;2023-11-21T10:02:01;5.60;;;2.90;;
6013;SDS011;3035;49.928;8.410;2023-11-21T10:04:29;4.80;;;2.73;;
6013;SDS011;3035;49.928;8.410;2023-11-21T10:06:57;9.20;;;2.80;;
6013;SDS011;3035;49.928;8.410;2023-11-21T10:09:26;7.00;;;2.80;;
6013;SDS011;3035;49.928;8.410;2023-11-21T10:11:54;5.20;;;3.00;;
6013;SDS011;3035;49.928;8.410;2023-11-21T10:14:22;7.20;;;2.73;;
6013;SDS011;3035;49.928;8.410;2023-11-21T10:16:49;6.20;;;2.70;;
6013;SDS011;3035;49.928;8.410;2023-11-21T10:19:18;4.27;;;2.57;;
6013;SDS011;3035;49.928;8.410;2023-11-21T10:21:46;7.63;;;2.80;;
6013;SDS011;3035;49.928;8.410;2023-11-21T10:24:14;6.70;;;2.90;;
6013;SDS011;3035;49.928;8.410;2023-11-21T10:26:42;7.93;;;3.30;;
6013;SDS011;3035;49.928;8.410;2023-11-21T10:29:10;7.07;;;3.03;;
6013;SDS011;3035;49.928;8.410;2023-11-21T10:31:37;5.83;;;3.40;;
6013;SDS011;3035;49.928;8.410;2023-11-21T10:36:40;7.27;;;3.63;;
6013;SDS011;3035;49.928;8.410;2023-11-21T10:39:08;5.80;;;2.73;;
6013;SDS011;3035;49.928;8.410;2023-11-21T10:41:36;6.13;;;2.90;;
6013;SDS011;3035;49.928;8.410;2023-11-21T10:44:04;5.70;;;3.17;;
6013;SDS011;3035;49.928;8.410;2023-11-21T10:46:32;8.70;;;3.20;;
6013;SDS011;3035;49.928;8.410;2023-11-21T10:49:00;6.20;;;3.40;;
6013;SDS011;3035;49.928;8.410;2023-11-21T10:51:28;6.70;;;3.20;;
6013;SDS011;3035;49.928;8.410;2023-11-21T10:53:56;5.90;;;3.27;;
6013;SDS011;3035;49.928;8.410;2023-11-21T10:56:23;7.60;;;2.70;;
6013;SDS011;3035;49.928;8.410;2023-11-21T10:58:50;6.43;;;3.10;;
6013;SDS011;3035;49.928;8.410;2023-11-21T11:01:18;7.00;;;3.17;;
6013;SDS011;3035;49.928;8.410;2023-11-21T11:03:45;4.47;;;2.97;;
6013;SDS011;3035;49.928;8.410;2023-11-21T11:06:13;5.73;;;2.80;;
6013;SDS011;3035;49.928;8.410;2023-11-21T11:08:40;8.40;;;3.10;;
6013;SDS011;3035;49.928;8.410;2023-11-21T11:11:09;7.47;;;3.20;;
6013;SDS011;3035;49.928;8.410;2023-11-21T11:13:35;9.97;;;2.93;;
6013;SDS011;3035;49.928;8.410;2023-11-21T11:16:03;7.70;;;3.30;;
6013;SDS011;3035;49.928;8.410;2023-11-21T11:18:30;8.10;;;3.40;;
6013;SDS011;3035;49.928;8.410;2023-11-21T11:21:07;18.43;;;3.13;;
6013;SDS011;3035;49.928;8.410;2023-11-21T11:23:46;6.80;;;2.73;;
6013;SDS011;3035;49.928;8.410;2023-11-21T11:26:20;6.20;;;2.20;;
6013;SDS011;3035;49.928;8.410;2023-11-21T11:28:57;5.53;;;3.50;;
6013;SDS011;3035;49.928;8.410;2023-11-21T11:36:48;6.67;;;3.07;;
6013;SDS011;3035;49.928;8.410;2023-11-21T11:41:56;3.67;;;2.30;;
6013;SDS011;3035;49.928;8.410;2023-11-21T11:47:02;7.10;;;2.50;;
6013;SDS011;3035;49.928;8.410;2023-11-21T11:49:29;4.90;;;2.80;;
6013;SDS011;3035;49.928;8.410;2023-11-21T11:54:36;10.23;;;3.17;;
6013;SDS011;3035;49.928;8.410;2023-11-21T11:57:03;4.50;;;3.00;;
6013;SDS011;3035;49.928;8.410;2023-11-21T11:59:31;9.33;;;3.00;;
6013;SDS011;3035;49.928;8.410;2023-11-21T12:01:58;7.03;;;3.10;;
6013;SDS011;3035;49.928;8.410;2023-11-21T12:04:26;4.43;;;2.97;;
6013;SDS011;3035;49.928;8.410;2023-11-21T12:06:54;7.00;;;3.27;;
6013;SDS011;3035;49.928;8.410;2023-11-21T12:09:22;6.83;;;3.10;;
6013;SDS011;3035;49.928;8.410;2023-11-21T12:11:49;6.13;;;2.47;;
6013;SDS011;3035;49.928;8.410;2023-11-21T12:14:16;12.57;;;3.67;;
6013;SDS011;3035;49.928;8.410;2023-11-21T12:16:43;7.40;;;3.33;;
6013;SDS011;3035;49.928;8.410;2023-11-21T12:19:11;8.80;;;4.00;;
6013;SDS011;3035;49.928;8.410;2023-11-21T12:21:39;4.33;;;3.27;;
6013;SDS011;3035;49.928;8.410;2023-11-21T12:24:07;8.63;;;3.03;;
6013;SDS011;3035;49.928;8.410;2023-11-21T12:26:36;8.57;;;3.13;;
6013;SDS011;3035;49.928;8.410;2023-11-21T12:29:03;4.70;;;3.20;;
6013;SDS011;3035;49.928;8.410;2023-11-21T12:31:30;7.77;;;2.60;;
6013;SDS011;3035;49.928;8.410;2023-11-21T12:33:58;8.30;;;3.37;;
6013;SDS011;3035;49.928;8.410;2023-11-21T12:36:25;6.40;;;2.23;;
6013;SDS011;3035;49.928;8.410;2023-11-21T12:38:53;9.33;;;2.60;;
6013;SDS011;3035;49.928;8.410;2023-11-21T12:41:20;4.80;;;2.73;;
6013;SDS011;3035;49.928;8.410;2023-11-21T12:43:48;2.53;;;1.80;;
6013;SDS011;3035;49.928;8.410;2023-11-21T12:46:15;7.43;;;2.53;;
6013;SDS011;3035;49.928;8.410;2023-11-21T12:48:43;5.40;;;3.30;;
6013;SDS011;3035;49.928;8.410;2023-11-21T12:51:10;5.37;;;2.40;;
6013;SDS011;3035;49.928;8.410;2023-11-21T12:53:38;3.60;;;2.40;;
6013;SDS011;3035;49.928;8.410;2023-11-21T12:56:06;9.67;;;3.43;;
6013;SDS011;3035;49.928;8.410;2023-11-21T12:58:35;7.80;;;2.83;;
6013;SDS011;3035;49.928;8.410;2023-11-21T13:01:02;5.73;;;2.30;;
6013;SDS011;3035;49.928;8.410;2023-11-21T13:03:30;3.80;;;2.53;;
6013;SDS011;3035;49.928;8.410;2023-11-21T13:05:57;5.17;;;2.53;;
6013;SDS011;3035;49.928;8.410;2023-11-21T13:08:25;6.43;;;2.40;;
6013;SDS011;3035;49.928;8.410;2023-11-21T13:10:53;5.53;;;2.60;;
6013;SDS011;3035;49.928;8.410;2023-11-21T13:13:20;3.70;;;2.70;;
6013;SDS011;3035;49.928;8.410;2023-11-21T13:15:49;3.47;;;2.70;;
6013;SDS011;3035;49.928;8.410;2023-11-21T13:18:17;4.37;;;2.30;;
6013;SDS011;3035;49.928;8.410;2023-11-21T13:20:44;3.97;;;2.57;;
6013;SDS011;3035;49.928;8.410;2023-11-21T13:23:12;7.20;;;2.57;;
6013;SDS011;3035;49.928;8.410;2023-11-21T13:25:39;5.23;;;2.73;;
6013;SDS011;3035;49.928;8.410;2023-11-21T13:28:08;5.40;;;2.60;;
6013;SDS011;3035;49.928;8.410;2023-11-21T13:30:35;6.10;;;3.10;;
6013;SDS011;3035;49.928;8.410;2023-11-21T13:33:03;5.73;;;2.27;;
6013;SDS011;3035;49.928;8.410;2023-11-21T13:35:30;2.70;;;2.50;;
6013;SDS011;3035;49.928;8.410;2023-11-21T13:38:02;3.03;;;2.73;;
6013;SDS011;3035;49.928;8.410;2023-11-21T13:40:25;6.73;;;3.53;;
6013;SDS011;3035;49.928;8.410;2023-11-21T13:42:53;7.57;;;2.93;;
6013;SDS011;3035;49.928;8.410;2023-11-21T13:45:20;15.20;;;3.60;;
6013;SDS011;3035;49.928;8.410;2023-11-21T13:47:47;4.40;;;2.87;;
6013;SDS011;3035;49.928;8.410;2023-11-21T13:50:14;6.23;;;3.07;;
6013;SDS011;3035;49.928;8.410;2023-11-21T13:52:42;9.70;;;3.43;;
6013;SDS011;3035;49.928;8.410;2023-11-21T13:55:10;6.80;;;3.57;;
6013;SDS011;3035;49.928;8.410;2023-11-21T13:57:38;5.80;;;2.80;;
6013;SDS011;3035;49.928;8.410;2023-11-21T14:00:06;8.77;;;3.53;;
6013;SDS011;3035;49.928;8.410;2023-11-21T14:02:34;8.70;;;3.00;;
6013;SDS011;3035;49.928;8.410;2023-11-21T14:05:01;8.00;;;3.33;;
6013;SDS011;3035;49.928;8.410;2023-11-21T14:07:28;5.20;;;3.40;;
6013;SDS011;3035;49.928;8.410;2023-11-21T14:09:57;3.90;;;2.90;;
6013;SDS011;3035;49.928;8.410;2023-11-21T14:12:24;4.57;;;3.00;;
6013;SDS011;3035;49.928;8.410;2023-11-21T14:14:52;7.57;;;3.10;;
6013;SDS011;3035;49.928;8.410;2023-11-21T14:17:19;8.83;;;4.20;;
6013;SDS011;3035;49.928;8.410;2023-11-21T14:19:46;6.50;;;3.40;;
6013;SDS011;3035;49.928;8.410;2023-11-21T14:22:14;5.90;;;3.50;;
6013;SDS011;3035;49.928;8.410;2023-11-21T14:24:41;6.37;;;3.40;;
6013;SDS011;3035;49.928;8.410;2023-11-21T14:27:09;4.80;;;3.07;;
6013;SDS011;3035;49.928;8.410;2023-11-21T14:29:36;6.67;;;3.53;;
6013;SDS011;3035;49.928;8.410;2023-11-21T14:32:04;5.33;;;3.60;;
6013;SDS011;3035;49.928;8.410;2023-11-21T14:34:31;6.80;;;3.50;;
6013;SDS011;3035;49.928;8.410;2023-11-21T14:36:59;5.10;;;3.90;;
6013;SDS011;3035;49.928;8.410;2023-11-21T14:39:26;6.47;;;4.23;;
6013;SDS011;3035;49.928;8.410;2023-11-21T14:41:54;5.10;;;3.50;;
6013;SDS011;3035;49.928;8.410;2023-11-21T14:44:23;5.77;;;4.17;;
6013;SDS011;3035;49.928;8.410;2023-11-21T14:46:51;6.43;;;4.13;;
6013;SDS011;3035;49.928;8.410;2023-11-21T14:49:18;7.90;;;4.23;;
6013;SDS011;3035;49.928;8.410;2023-11-21T14:51:47;9.30;;;4.00;;
6013;SDS011;3035;49.928;8.410;2023-11-21T14:54:32;8.63;;;3.70;;
6013;SDS011;3035;49.928;8.410;2023-11-21T14:57:05;7.33;;;3.80;;
6013;SDS011;3035;49.928;8.410;2023-11-21T14:59:32;5.63;;;3.97;;
6013;SDS011;3035;49.928;8.410;2023-11-21T15:01:59;6.93;;;4.07;;
6013;SDS011;3035;49.928;8.410;2023-11-21T15:04:27;7.23;;;4.33;;
6013;SDS011;3035;49.928;8.410;2023-11-21T15:07:05;8.23;;;5.10;;
6013;SDS011;3035;49.928;8.410;2023-11-21T15:09:33;7.53;;;3.53;;
6013;SDS011;3035;49.928;8.410;2023-11-21T15:12:03;8.80;;;4.13;;
6013;SDS011;3035;49.928;8.410;2023-11-21T15:14:33;12.63;;;4.63;;
6013;SDS011;3035;49.928;8.410;2023-11-21T15:17:00;9.07;;;4.83;;
6013;SDS011;3035;49.928;8.410;2023-11-21T15:19:28;6.50;;;3.70;;
6013;SDS011;3035;49.928;8.410;2023-11-21T15:21:56;8.43;;;4.87;;
6013;SDS011;3035;49.928;8.410;2023-11-21T15:24:23;5.50;;;4.50;;
6013;SDS011;3035;49.928;8.410;2023-11-21T15:26:51;7.93;;;5.00;;
6013;SDS011;3035;49.928;8.410;2023-11-21T15:29:19;9.07;;;4.00;;
6013;SDS011;3035;49.928;8.410;2023-11-21T15:31:47;12.07;;;4.57;;